sensor_id;sensor_type;location;lat;lon;timestamp;P1;durP1;ratioP1;P2;durP2;ratioP2
22711;SDS011;11523;50.390;8.072;2023-02-15T02:30:03;36.03;;;21.63;;
22711;SDS011;11523;50.390;8.072;2023-02-15T02:35:27;39.42;;;21.83;;
22711;SDS011;11523;50.390;8.072;2023-02-15T02:38:09;37.47;;;22.27;;
22711;SDS011;11523;50.390;8.072;2023-02-15T02:40:41;38.38;;;21.60;;
22711;SDS011;11523;50.390;8.072;2023-02-15T02:43:11;35.47;;;21.10;;
22711;SDS011;11523;50.390;8.072;2023-02-15T02:45:43;35.75;;;21.92;;
22711;SDS011;11523;50.390;8.072;2023-02-15T02:48:13;35.17;;;21.27;;
22711;SDS011;11523;50.390;8.072;2023-02-15T02:50:40;34.38;;;20.67;;
22711;SDS011;11523;50.390;8.072;2023-02-15T02:53:07;35.35;;;21.40;;
22711;SDS011;11523;50.390;8.072;2023-02-15T02:55:35;37.38;;;21.98;;
22711;SDS011;11523;50.390;8.072;2023-02-15T02:58:09;37.13;;;20.70;;
22711;SDS011;11523;50.390;8.072;2023-02-15T03:00:46;32.83;;;19.60;;
22711;SDS011;11523;50.390;8.072;2023-02-15T03:03:16;31.55;;;19.20;;
22711;SDS011;11523;50.390;8.072;2023-02-15T03:05:44;33.80;;;19.10;;
22711;SDS011;11523;50.390;8.072;2023-02-15T03:08:12;33.30;;;19.17;;
22711;SDS011;11523;50.390;8.072;2023-02-15T03:10:46;28.50;;;18.00;;
22711;SDS011;11523;50.390;8.072;2023-02-15T03:13:13;29.92;;;18.60;;
22711;SDS011;11523;50.390;8.072;2023-02-15T03:15:39;29.77;;;18.60;;
22711;SDS011;11523;50.390;8.072;2023-02-15T03:18:27;29.98;;;18.25;;
22711;SDS011;11523;50.390;8.072;2023-02-15T03:20:53;29.17;;;19.02;;
22711;SDS011;11523;50.390;8.072;2023-02-15T03:23:21;27.88;;;17.88;;
22711;SDS011;11523;50.390;8.072;2023-02-15T03:25:50;28.17;;;17.05;;
22711;SDS011;11523;50.390;8.072;2023-02-15T03:28:18;26.90;;;17.58;;
22711;SDS011;11523;50.390;8.072;2023-02-15T03:30:45;26.50;;;16.88;;
22711;SDS011;11523;50.390;8.072;2023-02-15T03:33:13;25.90;;;16.67;;
22711;SDS011;11523;50.390;8.072;2023-02-15T03:35:43;24.88;;;16.25;;
22711;SDS011;11523;50.390;8.072;2023-02-15T03:38:10;26.27;;;16.73;;
22711;SDS011;11523;50.390;8.072;2023-02-15T03:40:40;29.75;;;17.73;;
22711;SDS011;11523;50.390;8.072;2023-02-15T03:43:34;27.50;;;17.33;;
22711;SDS011;11523;50.390;8.072;2023-02-15T03:48:42;26.35;;;16.02;;
22711;SDS011;11523;50.390;8.072;2023-02-15T03:51:10;23.15;;;15.25;;
22711;SDS011;11523;50.390;8.072;2023-02-15T03:53:56;23.98;;;14.90;;
22711;SDS011;11523;50.390;8.072;2023-02-15T03:56:22;23.50;;;15.05;;
22711;SDS011;11523;50.390;8.072;2023-02-15T03:58:49;28.25;;;16.77;;
22711;SDS011;11523;50.390;8.072;2023-02-15T04:01:38;25.85;;;15.80;;
22711;SDS011;11523;50.390;8.072;2023-02-15T04:04:22;26.55;;;16.15;;
22711;SDS011;11523;50.390;8.072;2023-02-15T04:06:49;26.33;;;17.15;;
22711;SDS011;11523;50.390;8.072;2023-02-15T04:09:15;27.42;;;17.08;;
22711;SDS011;11523;50.390;8.072;2023-02-15T04:14:25;25.83;;;15.95;;
22711;SDS011;11523;50.390;8.072;2023-02-15T04:17:10;26.23;;;15.93;;
22711;SDS011;11523;50.390;8.072;2023-02-15T04:19:36;29.30;;;17.80;;
22711;SDS011;11523;50.390;8.072;2023-02-15T04:22:21;31.08;;;17.77;;
22711;SDS011;11523;50.390;8.072;2023-02-15T04:25:05;28.88;;;17.80;;
22711;SDS011;11523;50.390;8.072;2023-02-15T04:27:35;32.30;;;17.17;;
22711;SDS011;11523;50.390;8.072;2023-02-15T04:30:01;26.02;;;16.73;;
22711;SDS011;11523;50.390;8.072;2023-02-15T04:32:27;30.88;;;18.63;;
22711;SDS011;11523;50.390;8.072;2023-02-15T04:34:53;29.63;;;17.85;;
22711;SDS011;11523;50.390;8.072;2023-02-15T04:37:19;26.70;;;17.30;;
22711;SDS011;11523;50.390;8.072;2023-02-15T04:39:45;29.58;;;16.85;;
22711;SDS011;11523;50.390;8.072;2023-02-15T04:42:11;27.10;;;16.98;;
22711;SDS011;11523;50.390;8.072;2023-02-15T04:44:37;26.77;;;16.33;;
22711;SDS011;11523;50.390;8.072;2023-02-15T04:47:03;27.70;;;17.92;;
22711;SDS011;11523;50.390;8.072;2023-02-15T04:49:29;30.42;;;17.00;;
22711;SDS011;11523;50.390;8.072;2023-02-15T04:51:55;29.48;;;17.27;;
22711;SDS011;11523;50.390;8.072;2023-02-15T04:54:21;29.75;;;16.70;;
22711;SDS011;11523;50.390;8.072;2023-02-15T04:56:47;29.23;;;16.42;;
22711;SDS011;11523;50.390;8.072;2023-02-15T04:59:13;28.38;;;17.17;;
22711;SDS011;11523;50.390;8.072;2023-02-15T05:01:39;29.65;;;16.90;;
22711;SDS011;11523;50.390;8.072;2023-02-15T05:04:05;28.63;;;17.67;;
22711;SDS011;11523;50.390;8.072;2023-02-15T05:06:30;31.08;;;17.98;;
22711;SDS011;11523;50.390;8.072;2023-02-15T05:08:56;30.48;;;18.35;;
22711;SDS011;11523;50.390;8.072;2023-02-15T05:11:24;34.00;;;18.95;;
22711;SDS011;11523;50.390;8.072;2023-02-15T05:13:50;32.83;;;18.00;;
22711;SDS011;11523;50.390;8.072;2023-02-15T05:16:16;31.92;;;18.67;;
22711;SDS011;11523;50.390;8.072;2023-02-15T05:18:42;32.67;;;18.33;;
22711;SDS011;11523;50.390;8.072;2023-02-15T05:21:08;32.17;;;18.30;;
22711;SDS011;11523;50.390;8.072;2023-02-15T05:23:34;31.25;;;18.27;;
22711;SDS011;11523;50.390;8.072;2023-02-15T05:26:00;30.75;;;18.42;;
22711;SDS011;11523;50.390;8.072;2023-02-15T05:28:45;30.17;;;17.80;;
22711;SDS011;11523;50.390;8.072;2023-02-15T05:31:12;33.00;;;18.33;;
22711;SDS011;11523;50.390;8.072;2023-02-15T05:33:39;34.72;;;19.15;;
22711;SDS011;11523;50.390;8.072;2023-02-15T05:36:05;34.70;;;19.17;;
22711;SDS011;11523;50.390;8.072;2023-02-15T05:38:32;31.48;;;19.38;;
22711;SDS011;11523;50.390;8.072;2023-02-15T05:40:58;32.67;;;17.85;;
22711;SDS011;11523;50.390;8.072;2023-02-15T05:43:24;31.42;;;18.80;;
22711;SDS011;11523;50.390;8.072;2023-02-15T05:45:51;33.15;;;18.38;;
22711;SDS011;11523;50.390;8.072;2023-02-15T05:48:18;34.50;;;19.23;;
22711;SDS011;11523;50.390;8.072;2023-02-15T05:50:44;32.53;;;18.63;;
22711;SDS011;11523;50.390;8.072;2023-02-15T05:53:10;33.40;;;18.65;;
22711;SDS011;11523;50.390;8.072;2023-02-15T05:55:40;33.35;;;19.35;;
22711;SDS011;11523;50.390;8.072;2023-02-15T05:58:06;37.15;;;19.45;;
22711;SDS011;11523;50.390;8.072;2023-02-15T06:00:33;34.42;;;19.33;;
22711;SDS011;11523;50.390;8.072;2023-02-15T06:02:59;34.33;;;18.27;;
22711;SDS011;11523;50.390;8.072;2023-02-15T06:05:25;39.00;;;20.70;;
22711;SDS011;11523;50.390;8.072;2023-02-15T06:07:51;36.72;;;19.27;;
22711;SDS011;11523;50.390;8.072;2023-02-15T06:10:17;38.90;;;20.17;;
22711;SDS011;11523;50.390;8.072;2023-02-15T06:12:43;38.28;;;19.83;;
22711;SDS011;11523;50.390;8.072;2023-02-15T06:15:09;34.45;;;19.42;;
22711;SDS011;11523;50.390;8.072;2023-02-15T06:17:35;37.78;;;20.60;;
22711;SDS011;11523;50.390;8.072;2023-02-15T06:20:02;34.65;;;19.90;;
22711;SDS011;11523;50.390;8.072;2023-02-15T06:22:28;35.33;;;19.77;;
22711;SDS011;11523;50.390;8.072;2023-02-15T06:24:54;35.05;;;19.38;;
22711;SDS011;11523;50.390;8.072;2023-02-15T06:27:20;38.53;;;19.00;;
22711;SDS011;11523;50.390;8.072;2023-02-15T06:29:46;36.50;;;20.08;;
22711;SDS011;11523;50.390;8.072;2023-02-15T06:32:12;37.67;;;21.10;;
22711;SDS011;11523;50.390;8.072;2023-02-15T06:34:38;39.10;;;21.08;;
22711;SDS011;11523;50.390;8.072;2023-02-15T06:37:04;43.63;;;22.00;;
22711;SDS011;11523;50.390;8.072;2023-02-15T06:39:30;34.90;;;19.65;;
22711;SDS011;11523;50.390;8.072;2023-02-15T06:41:56;38.80;;;21.08;;
22711;SDS011;11523;50.390;8.072;2023-02-15T06:44:23;42.63;;;21.85;;
22711;SDS011;11523;50.390;8.072;2023-02-15T06:46:48;40.70;;;22.02;;
22711;SDS011;11523;50.390;8.072;2023-02-15T06:49:14;42.63;;;21.63;;
22711;SDS011;11523;50.390;8.072;2023-02-15T06:51:40;44.35;;;24.55;;
22711;SDS011;11523;50.390;8.072;2023-02-15T06:54:06;39.22;;;21.23;;
22711;SDS011;11523;50.390;8.072;2023-02-15T06:56:32;39.47;;;22.50;;
22711;SDS011;11523;50.390;8.072;2023-02-15T06:58:58;39.67;;;21.98;;
22711;SDS011;11523;50.390;8.072;2023-02-15T07:01:24;35.60;;;19.73;;
22711;SDS011;11523;50.390;8.072;2023-02-15T07:03:50;32.30;;;18.75;;
22711;SDS011;11523;50.390;8.072;2023-02-15T07:06:16;33.53;;;18.60;;
22711;SDS011;11523;50.390;8.072;2023-02-15T07:08:42;33.65;;;19.50;;
22711;SDS011;11523;50.390;8.072;2023-02-15T07:11:08;33.53;;;18.80;;
22711;SDS011;11523;50.390;8.072;2023-02-15T07:16:19;33.03;;;19.23;;
22711;SDS011;11523;50.390;8.072;2023-02-15T07:18:45;33.53;;;18.45;;
22711;SDS011;11523;50.390;8.072;2023-02-15T07:21:11;31.50;;;18.10;;
22711;SDS011;11523;50.390;8.072;2023-02-15T07:23:37;30.88;;;18.73;;
22711;SDS011;11523;50.390;8.072;2023-02-15T07:26:04;33.15;;;18.60;;
22711;SDS011;11523;50.390;8.072;2023-02-15T07:28:31;29.50;;;18.13;;
22711;SDS011;11523;50.390;8.072;2023-02-15T07:30:57;28.77;;;17.77;;
22711;SDS011;11523;50.390;8.072;2023-02-15T07:33:23;32.05;;;18.52;;
22711;SDS011;11523;50.390;8.072;2023-02-15T07:35:53;31.27;;;18.45;;
22711;SDS011;11523;50.390;8.072;2023-02-15T07:38:19;30.83;;;17.73;;
22711;SDS011;11523;50.390;8.072;2023-02-15T07:40:46;27.83;;;17.02;;
22711;SDS011;11523;50.390;8.072;2023-02-15T07:43:12;28.98;;;17.55;;
22711;SDS011;11523;50.390;8.072;2023-02-15T07:45:38;33.85;;;19.55;;
22711;SDS011;11523;50.390;8.072;2023-02-15T07:48:04;31.70;;;18.52;;
22711;SDS011;11523;50.390;8.072;2023-02-15T07:50:31;29.42;;;17.65;;
22711;SDS011;11523;50.390;8.072;2023-02-15T07:52:57;32.33;;;18.90;;
22711;SDS011;11523;50.390;8.072;2023-02-15T07:55:23;31.95;;;18.50;;
22711;SDS011;11523;50.390;8.072;2023-02-15T07:57:50;35.15;;;19.85;;
22711;SDS011;11523;50.390;8.072;2023-02-15T08:00:17;31.25;;;19.45;;
22711;SDS011;11523;50.390;8.072;2023-02-15T08:02:49;32.95;;;20.27;;
22711;SDS011;11523;50.390;8.072;2023-02-15T08:05:34;35.83;;;19.52;;
22711;SDS011;11523;50.390;8.072;2023-02-15T08:07:59;32.75;;;20.27;;
22711;SDS011;11523;50.390;8.072;2023-02-15T08:10:25;34.63;;;19.88;;
22711;SDS011;11523;50.390;8.072;2023-02-15T08:13:18;32.30;;;20.00;;
22711;SDS011;11523;50.390;8.072;2023-02-15T08:15:48;37.13;;;19.98;;
22711;SDS011;11523;50.390;8.072;2023-02-15T08:18:14;37.42;;;21.88;;
22711;SDS011;11523;50.390;8.072;2023-02-15T08:20:40;37.70;;;20.83;;
22711;SDS011;11523;50.390;8.072;2023-02-15T08:23:06;36.03;;;20.58;;
22711;SDS011;11523;50.390;8.072;2023-02-15T08:25:32;35.53;;;21.02;;
22711;SDS011;11523;50.390;8.072;2023-02-15T08:28:04;33.58;;;20.00;;
22711;SDS011;11523;50.390;8.072;2023-02-15T08:30:30;36.85;;;21.10;;
22711;SDS011;11523;50.390;8.072;2023-02-15T08:32:56;31.33;;;19.75;;
22711;SDS011;11523;50.390;8.072;2023-02-15T08:35:22;31.08;;;20.52;;
22711;SDS011;11523;50.390;8.072;2023-02-15T08:37:48;32.03;;;18.77;;
22711;SDS011;11523;50.390;8.072;2023-02-15T08:40:14;32.92;;;19.90;;
22711;SDS011;11523;50.390;8.072;2023-02-15T08:42:40;32.47;;;18.80;;
22711;SDS011;11523;50.390;8.072;2023-02-15T08:45:06;34.03;;;19.88;;
22711;SDS011;11523;50.390;8.072;2023-02-15T08:47:33;31.33;;;19.67;;
22711;SDS011;11523;50.390;8.072;2023-02-15T08:49:58;29.63;;;17.85;;
22711;SDS011;11523;50.390;8.072;2023-02-15T08:52:24;33.95;;;19.88;;
22711;SDS011;11523;50.390;8.072;2023-02-15T08:54:51;30.73;;;18.63;;
22711;SDS011;11523;50.390;8.072;2023-02-15T08:57:16;32.33;;;20.33;;
22711;SDS011;11523;50.390;8.072;2023-02-15T08:59:42;32.33;;;19.88;;
22711;SDS011;11523;50.390;8.072;2023-02-15T09:02:09;31.23;;;18.70;;
22711;SDS011;11523;50.390;8.072;2023-02-15T09:04:36;32.95;;;20.77;;
22711;SDS011;11523;50.390;8.072;2023-02-15T09:07:02;35.92;;;20.67;;
22711;SDS011;11523;50.390;8.072;2023-02-15T09:09:29;30.42;;;18.55;;
22711;SDS011;11523;50.390;8.072;2023-02-15T09:11:56;30.75;;;18.90;;
22711;SDS011;11523;50.390;8.072;2023-02-15T09:14:22;36.17;;;19.23;;
22711;SDS011;11523;50.390;8.072;2023-02-15T09:16:51;31.45;;;19.80;;
22711;SDS011;11523;50.390;8.072;2023-02-15T09:19:18;32.42;;;19.00;;
22711;SDS011;11523;50.390;8.072;2023-02-15T09:21:44;30.55;;;18.13;;
22711;SDS011;11523;50.390;8.072;2023-02-15T09:24:11;34.40;;;20.77;;
22711;SDS011;11523;50.390;8.072;2023-02-15T09:26:39;36.05;;;20.35;;
22711;SDS011;11523;50.390;8.072;2023-02-15T09:29:08;31.27;;;19.13;;
22711;SDS011;11523;50.390;8.072;2023-02-15T09:31:41;35.88;;;21.35;;
22711;SDS011;11523;50.390;8.072;2023-02-15T09:34:09;35.97;;;21.42;;
22711;SDS011;11523;50.390;8.072;2023-02-15T09:36:36;37.20;;;20.48;;
22711;SDS011;11523;50.390;8.072;2023-02-15T09:39:13;36.65;;;20.83;;
22711;SDS011;11523;50.390;8.072;2023-02-15T09:44:14;35.60;;;21.25;;
22711;SDS011;11523;50.390;8.072;2023-02-15T09:46:55;30.67;;;19.38;;
22711;SDS011;11523;50.390;8.072;2023-02-15T09:52:46;30.95;;;17.88;;
22711;SDS011;11523;50.390;8.072;2023-02-15T09:55:05;29.90;;;19.35;;
22711;SDS011;11523;50.390;8.072;2023-02-15T09:57:41;31.25;;;19.33;;
22711;SDS011;11523;50.390;8.072;2023-02-15T10:00:14;29.75;;;17.90;;
22711;SDS011;11523;50.390;8.072;2023-02-15T10:03:04;29.70;;;17.70;;
22711;SDS011;11523;50.390;8.072;2023-02-15T10:05:59;30.73;;;18.33;;
22711;SDS011;11523;50.390;8.072;2023-02-15T10:11:02;26.50;;;17.77;;
22711;SDS011;11523;50.390;8.072;2023-02-15T10:22:08;26.38;;;17.02;;
22711;SDS011;11523;50.390;8.072;2023-02-15T10:27:20;26.85;;;16.15;;
22711;SDS011;11523;50.390;8.072;2023-02-15T10:32:25;30.85;;;19.30;;
22711;SDS011;11523;50.390;8.072;2023-02-15T10:34:52;28.08;;;16.67;;
22711;SDS011;11523;50.390;8.072;2023-02-15T10:37:32;27.65;;;17.08;;
22711;SDS011;11523;50.390;8.072;2023-02-15T10:45:06;27.13;;;17.45;;
22711;SDS011;11523;50.390;8.072;2023-02-15T11:06:05;24.90;;;15.70;;
22711;SDS011;11523;50.390;8.072;2023-02-15T11:08:36;26.58;;;17.67;;
22711;SDS011;11523;50.390;8.072;2023-02-15T11:11:05;27.80;;;16.77;;
22711;SDS011;11523;50.390;8.072;2023-02-15T11:13:34;27.27;;;16.95;;
22711;SDS011;11523;50.390;8.072;2023-02-15T11:16:05;26.83;;;17.50;;
22711;SDS011;11523;50.390;8.072;2023-02-15T11:18:32;27.33;;;16.80;;
22711;SDS011;11523;50.390;8.072;2023-02-15T11:23:28;24.63;;;16.35;;
22711;SDS011;11523;50.390;8.072;2023-02-15T11:25:56;24.60;;;15.90;;
22711;SDS011;11523;50.390;8.072;2023-02-15T11:28:24;24.60;;;17.58;;
22711;SDS011;11523;50.390;8.072;2023-02-15T11:31:00;26.35;;;17.08;;
22711;SDS011;11523;50.390;8.072;2023-02-15T11:33:29;25.25;;;17.52;;
22711;SDS011;11523;50.390;8.072;2023-02-15T11:36:11;23.58;;;16.05;;
22711;SDS011;11523;50.390;8.072;2023-02-15T11:38:38;24.52;;;17.42;;
22711;SDS011;11523;50.390;8.072;2023-02-15T11:41:11;24.13;;;15.77;;
22711;SDS011;11523;50.390;8.072;2023-02-15T11:46:05;24.00;;;16.65;;
22711;SDS011;11523;50.390;8.072;2023-02-15T11:48:31;22.02;;;16.27;;
22711;SDS011;11523;50.390;8.072;2023-02-15T11:50:58;25.63;;;16.70;;
22711;SDS011;11523;50.390;8.072;2023-02-15T11:53:24;22.92;;;16.45;;
22711;SDS011;11523;50.390;8.072;2023-02-15T11:55:52;23.00;;;16.05;;
22711;SDS011;11523;50.390;8.072;2023-02-15T12:00:56;21.98;;;16.65;;
22711;SDS011;11523;50.390;8.072;2023-02-15T12:03:28;23.52;;;16.30;;
22711;SDS011;11523;50.390;8.072;2023-02-15T12:06:01;24.27;;;16.00;;
22711;SDS011;11523;50.390;8.072;2023-02-15T12:08:31;26.13;;;16.88;;
22711;SDS011;11523;50.390;8.072;2023-02-15T12:11:02;21.88;;;15.88;;
22711;SDS011;11523;50.390;8.072;2023-02-15T12:13:32;22.88;;;16.30;;
22711;SDS011;11523;50.390;8.072;2023-02-15T12:15:58;22.92;;;15.38;;
22711;SDS011;11523;50.390;8.072;2023-02-15T12:18:37;25.00;;;17.05;;
22711;SDS011;11523;50.390;8.072;2023-02-15T12:21:08;22.65;;;16.00;;
22711;SDS011;11523;50.390;8.072;2023-02-15T12:23:40;24.40;;;15.65;;
22711;SDS011;11523;50.390;8.072;2023-02-15T12:26:07;23.77;;;16.73;;
22711;SDS011;11523;50.390;8.072;2023-02-15T12:28:33;23.17;;;15.50;;
22711;SDS011;11523;50.390;8.072;2023-02-15T12:31:01;24.35;;;16.40;;
22711;SDS011;11523;50.390;8.072;2023-02-15T12:33:35;25.38;;;15.55;;
22711;SDS011;11523;50.390;8.072;2023-02-15T12:36:11;23.65;;;15.30;;
22711;SDS011;11523;50.390;8.072;2023-02-15T12:38:38;21.13;;;15.23;;
22711;SDS011;11523;50.390;8.072;2023-02-15T12:41:19;21.70;;;14.98;;
22711;SDS011;11523;50.390;8.072;2023-02-15T12:43:46;19.83;;;13.35;;
22711;SDS011;11523;50.390;8.072;2023-02-15T12:48:39;18.15;;;14.43;;
22711;SDS011;11523;50.390;8.072;2023-02-15T12:51:08;21.00;;;15.10;;
22711;SDS011;11523;50.390;8.072;2023-02-15T12:53:35;18.13;;;14.07;;
22711;SDS011;11523;50.390;8.072;2023-02-15T12:56:09;21.33;;;14.27;;
22711;SDS011;11523;50.390;8.072;2023-02-15T12:58:35;19.35;;;14.10;;
22711;SDS011;11523;50.390;8.072;2023-02-15T13:01:15;17.20;;;14.60;;
22711;SDS011;11523;50.390;8.072;2023-02-15T13:03:55;18.95;;;14.10;;
22711;SDS011;11523;50.390;8.072;2023-02-15T13:06:22;19.23;;;14.35;;
22711;SDS011;11523;50.390;8.072;2023-02-15T13:08:49;16.23;;;14.02;;
22711;SDS011;11523;50.390;8.072;2023-02-15T13:11:19;18.48;;;14.50;;
22711;SDS011;11523;50.390;8.072;2023-02-15T13:13:56;15.43;;;12.68;;
22711;SDS011;11523;50.390;8.072;2023-02-15T13:16:38;16.70;;;13.00;;
22711;SDS011;11523;50.390;8.072;2023-02-15T13:19:06;19.88;;;15.25;;
22711;SDS011;11523;50.390;8.072;2023-02-15T13:21:35;17.75;;;13.85;;
22711;SDS011;11523;50.390;8.072;2023-02-15T13:24:05;15.60;;;12.70;;
22711;SDS011;11523;50.390;8.072;2023-02-15T13:26:32;16.58;;;12.73;;
22711;SDS011;11523;50.390;8.072;2023-02-15T13:29:05;16.95;;;13.20;;
22711;SDS011;11523;50.390;8.072;2023-02-15T13:31:33;16.67;;;13.02;;
22711;SDS011;11523;50.390;8.072;2023-02-15T13:34:01;14.80;;;12.65;;
22711;SDS011;11523;50.390;8.072;2023-02-15T13:36:29;14.85;;;11.43;;
22711;SDS011;11523;50.390;8.072;2023-02-15T13:41:44;15.02;;;12.27;;
22711;SDS011;11523;50.390;8.072;2023-02-15T13:44:18;15.13;;;12.55;;
22711;SDS011;11523;50.390;8.072;2023-02-15T13:49:24;16.33;;;12.65;;
22711;SDS011;11523;50.390;8.072;2023-02-15T13:54:56;14.43;;;11.98;;
22711;SDS011;11523;50.390;8.072;2023-02-15T14:02:29;16.15;;;12.30;;
22711;SDS011;11523;50.390;8.072;2023-02-15T14:07:30;15.02;;;12.48;;
22711;SDS011;11523;50.390;8.072;2023-02-15T14:12:56;15.18;;;12.00;;
22711;SDS011;11523;50.390;8.072;2023-02-15T14:15:31;15.98;;;13.32;;
22711;SDS011;11523;50.390;8.072;2023-02-15T14:30:38;20.80;;;17.35;;
22711;SDS011;11523;50.390;8.072;2023-02-15T14:33:10;21.48;;;18.08;;
22711;SDS011;11523;50.390;8.072;2023-02-15T14:35:42;22.00;;;18.77;;
22711;SDS011;11523;50.390;8.072;2023-02-15T14:38:32;20.65;;;18.45;;
22711;SDS011;11523;50.390;8.072;2023-02-15T14:43:48;22.20;;;17.90;;
22711;SDS011;11523;50.390;8.072;2023-02-15T14:54:52;19.75;;;15.38;;
22711;SDS011;11523;50.390;8.072;2023-02-15T15:09:46;22.13;;;16.98;;
22711;SDS011;11523;50.390;8.072;2023-02-15T15:14:43;23.25;;;18.58;;
22711;SDS011;11523;50.390;8.072;2023-02-15T15:17:12;22.77;;;19.08;;
22711;SDS011;11523;50.390;8.072;2023-02-15T15:22:22;21.63;;;17.40;;
22711;SDS011;11523;50.390;8.072;2023-02-15T15:30:00;22.90;;;17.92;;
22711;SDS011;11523;50.390;8.072;2023-02-15T15:32:27;24.20;;;17.23;;
22711;SDS011;11523;50.390;8.072;2023-02-15T15:35:09;21.73;;;17.70;;
22711;SDS011;11523;50.390;8.072;2023-02-15T15:40:18;20.73;;;17.17;;
22711;SDS011;11523;50.390;8.072;2023-02-15T15:45:33;21.63;;;17.30;;
22711;SDS011;11523;50.390;8.072;2023-02-15T15:48:19;25.48;;;18.77;;
22711;SDS011;11523;50.390;8.072;2023-02-15T15:50:48;21.95;;;17.75;;
22711;SDS011;11523;50.390;8.072;2023-02-15T15:53:20;22.25;;;16.90;;
22711;SDS011;11523;50.390;8.072;2023-02-15T15:55:46;22.45;;;17.42;;
22711;SDS011;11523;50.390;8.072;2023-02-15T15:58:13;23.83;;;17.67;;
22711;SDS011;11523;50.390;8.072;2023-02-15T16:00:42;25.35;;;18.73;;
22711;SDS011;11523;50.390;8.072;2023-02-15T16:05:41;24.88;;;19.02;;
22711;SDS011;11523;50.390;8.072;2023-02-15T16:08:07;25.77;;;18.83;;
22711;SDS011;11523;50.390;8.072;2023-02-15T16:10:33;26.90;;;19.02;;
22711;SDS011;11523;50.390;8.072;2023-02-15T16:13:02;28.02;;;19.60;;
22711;SDS011;11523;50.390;8.072;2023-02-15T16:15:35;28.17;;;19.73;;
22711;SDS011;11523;50.390;8.072;2023-02-15T16:18:02;26.60;;;19.65;;
22711;SDS011;11523;50.390;8.072;2023-02-15T16:20:34;26.45;;;20.23;;
22711;SDS011;11523;50.390;8.072;2023-02-15T16:28:12;30.77;;;21.05;;
22711;SDS011;11523;50.390;8.072;2023-02-15T16:30:38;26.23;;;20.13;;
22711;SDS011;11523;50.390;8.072;2023-02-15T16:33:14;29.50;;;21.23;;
22711;SDS011;11523;50.390;8.072;2023-02-15T16:36:02;27.92;;;19.85;;
22711;SDS011;11523;50.390;8.072;2023-02-15T16:41:11;32.95;;;21.13;;
22711;SDS011;11523;50.390;8.072;2023-02-15T16:43:37;31.73;;;21.45;;
22711;SDS011;11523;50.390;8.072;2023-02-15T16:46:05;29.20;;;20.65;;
22711;SDS011;11523;50.390;8.072;2023-02-15T16:48:31;29.20;;;20.98;;
22711;SDS011;11523;50.390;8.072;2023-02-15T16:50:59;29.02;;;20.98;;
22711;SDS011;11523;50.390;8.072;2023-02-15T16:53:26;29.42;;;20.80;;
22711;SDS011;11523;50.390;8.072;2023-02-15T16:55:53;30.60;;;21.80;;
22711;SDS011;11523;50.390;8.072;2023-02-15T16:58:22;27.50;;;20.75;;
22711;SDS011;11523;50.390;8.072;2023-02-15T17:00:50;31.20;;;21.08;;
22711;SDS011;11523;50.390;8.072;2023-02-15T17:03:22;33.65;;;21.70;;
22711;SDS011;11523;50.390;8.072;2023-02-15T17:05:49;27.80;;;20.17;;
22711;SDS011;11523;50.390;8.072;2023-02-15T17:08:17;30.38;;;22.17;;
22711;SDS011;11523;50.390;8.072;2023-02-15T17:10:45;28.15;;;21.05;;
22711;SDS011;11523;50.390;8.072;2023-02-15T17:13:13;30.33;;;21.52;;
22711;SDS011;11523;50.390;8.072;2023-02-15T17:15:40;29.83;;;21.85;;
22711;SDS011;11523;50.390;8.072;2023-02-15T17:18:19;31.05;;;22.55;;
22711;SDS011;11523;50.390;8.072;2023-02-15T17:20:46;27.73;;;20.85;;
22711;SDS011;11523;50.390;8.072;2023-02-15T17:25:55;31.48;;;21.70;;
22711;SDS011;11523;50.390;8.072;2023-02-15T17:28:22;31.80;;;21.80;;
22711;SDS011;11523;50.390;8.072;2023-02-15T17:30:50;29.55;;;21.65;;
22711;SDS011;11523;50.390;8.072;2023-02-15T17:33:24;37.88;;;23.30;;
22711;SDS011;11523;50.390;8.072;2023-02-15T17:38:30;31.95;;;22.83;;
22711;SDS011;11523;50.390;8.072;2023-02-15T17:40:56;30.25;;;22.48;;
22711;SDS011;11523;50.390;8.072;2023-02-15T17:43:23;35.10;;;23.73;;
22711;SDS011;11523;50.390;8.072;2023-02-15T17:45:49;32.60;;;23.63;;
22711;SDS011;11523;50.390;8.072;2023-02-15T17:48:20;32.17;;;22.58;;
22711;SDS011;11523;50.390;8.072;2023-02-15T17:50:46;30.70;;;21.05;;
22711;SDS011;11523;50.390;8.072;2023-02-15T17:53:12;30.90;;;22.40;;
22711;SDS011;11523;50.390;8.072;2023-02-15T17:55:41;34.53;;;21.67;;
22711;SDS011;11523;50.390;8.072;2023-02-15T17:58:08;29.65;;;22.20;;
22711;SDS011;11523;50.390;8.072;2023-02-15T18:00:36;33.72;;;22.48;;
22711;SDS011;11523;50.390;8.072;2023-02-15T18:03:22;30.23;;;21.05;;
22711;SDS011;11523;50.390;8.072;2023-02-15T18:06:08;29.45;;;20.80;;
22711;SDS011;11523;50.390;8.072;2023-02-15T18:08:53;28.95;;;21.30;;
22711;SDS011;11523;50.390;8.072;2023-02-15T18:11:38;28.70;;;20.75;;
22711;SDS011;11523;50.390;8.072;2023-02-15T18:14:05;29.70;;;22.08;;
22711;SDS011;11523;50.390;8.072;2023-02-15T18:16:32;31.45;;;22.92;;
22711;SDS011;11523;50.390;8.072;2023-02-15T18:18:59;29.63;;;21.33;;
22711;SDS011;11523;50.390;8.072;2023-02-15T18:21:25;29.95;;;22.38;;
22711;SDS011;11523;50.390;8.072;2023-02-15T18:23:51;29.77;;;22.38;;
22711;SDS011;11523;50.390;8.072;2023-02-15T18:26:18;29.10;;;21.30;;
22711;SDS011;11523;50.390;8.072;2023-02-15T18:28:44;30.15;;;22.38;;
22711;SDS011;11523;50.390;8.072;2023-02-15T18:31:10;28.75;;;22.17;;
22711;SDS011;11523;50.390;8.072;2023-02-15T18:33:51;30.30;;;21.65;;
22711;SDS011;11523;50.390;8.072;2023-02-15T18:36:39;30.30;;;21.23;;
22711;SDS011;11523;50.390;8.072;2023-02-15T18:41:52;30.63;;;21.33;;
22711;SDS011;11523;50.390;8.072;2023-02-15T18:44:18;29.13;;;21.25;;
22711;SDS011;11523;50.390;8.072;2023-02-15T18:46:44;30.20;;;21.45;;
22711;SDS011;11523;50.390;8.072;2023-02-15T18:49:10;31.17;;;22.10;;
22711;SDS011;11523;50.390;8.072;2023-02-15T18:51:36;28.98;;;21.20;;
22711;SDS011;11523;50.390;8.072;2023-02-15T18:54:07;32.00;;;22.38;;
22711;SDS011;11523;50.390;8.072;2023-02-15T18:56:36;30.88;;;23.35;;
22711;SDS011;11523;50.390;8.072;2023-02-15T18:59:02;33.45;;;23.50;;
22711;SDS011;11523;50.390;8.072;2023-02-15T19:01:28;28.88;;;22.17;;
22711;SDS011;11523;50.390;8.072;2023-02-15T19:03:54;29.80;;;22.08;;
22711;SDS011;11523;50.390;8.072;2023-02-15T19:06:20;32.47;;;22.35;;
22711;SDS011;11523;50.390;8.072;2023-02-15T19:08:49;29.33;;;21.35;;
22711;SDS011;11523;50.390;8.072;2023-02-15T19:11:16;33.22;;;23.20;;
22711;SDS011;11523;50.390;8.072;2023-02-15T19:13:43;32.72;;;22.42;;
22711;SDS011;11523;50.390;8.072;2023-02-15T19:16:24;33.65;;;22.80;;
22711;SDS011;11523;50.390;8.072;2023-02-15T19:18:51;30.73;;;21.88;;
22711;SDS011;11523;50.390;8.072;2023-02-15T19:21:17;33.22;;;23.02;;
22711;SDS011;11523;50.390;8.072;2023-02-15T19:23:44;31.58;;;22.52;;
22711;SDS011;11523;50.390;8.072;2023-02-15T19:26:12;41.40;;;28.75;;
22711;SDS011;11523;50.390;8.072;2023-02-15T19:28:38;54.22;;;37.53;;
22711;SDS011;11523;50.390;8.072;2023-02-15T19:31:04;38.72;;;27.05;;
22711;SDS011;11523;50.390;8.072;2023-02-15T19:33:30;44.40;;;29.50;;
22711;SDS011;11523;50.390;8.072;2023-02-15T19:35:56;168.98;;;115.57;;
22711;SDS011;11523;50.390;8.072;2023-02-15T19:38:23;90.22;;;60.42;;